Time;durP1;ratioP1;P1;durP2;ratioP2;P2;SDS_P1;SDS_P2;PMS_P1;PMS_P2;Temp;Humidity;BMP_temperature;BMP_pressure;BME280_temperature;BME280_humidity;BME280_pressure;Samples;Min_cycle;Max_cycle;Signal;HPM_P1;HPM_P2
2021/11/30 00:00:04;;;;;;;15.05;8.13;;;;;;;;;;5034381;28;20205;-76
2021/11/30 00:02:30;;;;;;;11.02;7.32;;;;;;;;;;5034922;28;20167;-77
2021/11/30 00:04:56;;;;;;;18.70;8.13;;;;;;;;;;5033616;28;20230;-75
2021/11/30 00:07:22;;;;;;;13.15;7.50;;;;;;;;;;5034527;28;20184;-77
2021/11/30 00:12:18;;;;;;;10.97;6.30;;;;;;;;;;5034786;28;20177;-79
2021/11/30 00:14:46;;;;;;;13.52;7.38;;;;;;;;;;5033254;28;20885;-80
2021/11/30 00:17:12;;;;;;;12.18;8.27;;;;;;;;;;5034354;28;20204;-78
2021/11/30 00:19:39;;;;;;;20.38;9.20;;;;;;;;;;5033823;28;20652;-79
2021/11/30 00:22:06;;;;;;;11.98;7.65;;;;;;;;;;5033180;28;20193;-81
2021/11/30 00:24:33;;;;;;;15.38;6.65;;;;;;;;;;5034482;28;20177;-78
2021/11/30 00:26:59;;;;;;;10.85;6.30;;;;;;;;;;5034236;28;20185;-81
2021/11/30 00:29:25;;;;;;;18.65;8.95;;;;;;;;;;5032453;28;20213;-79
2021/11/30 00:31:51;;;;;;;17.63;8.50;;;;;;;;;;5032660;28;20223;-78
2021/11/30 00:34:18;;;;;;;16.17;9.32;;;;;;;;;;5034027;28;20768;-78
2021/11/30 00:36:47;;;;;;;21.30;9.93;;;;;;;;;;5034009;28;20174;-77
2021/11/30 00:39:13;;;;;;;16.00;9.10;;;;;;;;;;5033631;28;20269;-76
2021/11/30 00:41:45;;;;;;;13.13;9.13;;;;;;;;;;5032473;28;20209;-78
2021/11/30 00:44:14;;;;;;;14.13;7.63;;;;;;;;;;5033964;28;20185;-79
2021/11/30 00:46:41;;;;;;;19.45;9.00;;;;;;;;;;5033938;28;20172;-77
2021/11/30 00:49:08;;;;;;;16.08;8.30;;;;;;;;;;5033965;28;20201;-80
2021/11/30 00:51:40;;;;;;;18.67;8.82;;;;;;;;;;5033557;28;20203;-76
2021/11/30 00:54:07;;;;;;;12.00;8.68;;;;;;;;;;5033714;28;20173;-77
2021/11/30 00:56:34;;;;;;;10.85;7.53;;;;;;;;;;5033844;28;20269;-77
2021/11/30 00:59:00;;;;;;;14.82;8.10;;;;;;;;;;5033713;28;20185;-78
2021/11/30 01:01:26;;;;;;;10.75;7.70;;;;;;;;;;5033167;28;20201;-79
2021/11/30 01:03:52;;;;;;;20.25;7.70;;;;;;;;;;5033149;28;20194;-80
2021/11/30 01:06:18;;;;;;;11.35;5.57;;;;;;;;;;5033615;28;20249;-80
2021/11/30 01:08:44;;;;;;;13.90;5.65;;;;;;;;;;5033381;28;20212;-77
2021/11/30 01:11:10;;;;;;;15.90;7.40;;;;;;;;;;5031804;28;20677;-78
2021/11/30 01:13:36;;;;;;;17.98;6.30;;;;;;;;;;5033371;28;20185;-78
2021/11/30 01:16:03;;;;;;;10.77;6.90;;;;;;;;;;5033333;28;20172;-79
2021/11/30 01:18:30;;;;;;;8.52;5.93;;;;;;;;;;5033280;28;20614;-76
2021/11/30 01:20:56;;;;;;;9.48;6.05;;;;;;;;;;5031664;28;20290;-80
2021/11/30 01:23:22;;;;;;;8.87;5.57;;;;;;;;;;5033323;28;20180;-77
2021/11/30 01:25:48;;;;;;;9.48;5.85;;;;;;;;;;5033110;28;20416;-78
2021/11/30 01:28:14;;;;;;;9.02;6.18;;;;;;;;;;5033142;28;20213;-80
2021/11/30 01:30:40;;;;;;;6.15;5.43;;;;;;;;;;5031598;28;20204;-77
2021/11/30 01:33:07;;;;;;;10.98;5.75;;;;;;;;;;5033451;28;20215;-78
2021/11/30 01:35:34;;;;;;;6.80;4.50;;;;;;;;;;5033174;28;20537;-79
2021/11/30 01:38:00;;;;;;;5.47;4.55;;;;;;;;;;5032997;28;20185;-78
2021/11/30 01:40:28;;;;;;;9.93;4.80;;;;;;;;;;5031513;28;20205;-80
2021/11/30 01:42:56;;;;;;;8.85;5.38;;;;;;;;;;5033086;28;20178;-78
2021/11/30 01:50:34;;;;;;;8.18;4.93;;;;;;;;;;5032758;28;20302;-76
2021/11/30 01:53:00;;;;;;;8.00;5.03;;;;;;;;;;5033103;28;20176;-76
2021/11/30 01:55:27;;;;;;;10.52;5.38;;;;;;;;;;5033140;28;20553;-77
2021/11/30 01:57:54;;;;;;;8.90;4.63;;;;;;;;;;5032914;28;20173;-79
2021/11/30 02:00:21;;;;;;;10.93;5.63;;;;;;;;;;5031225;28;20588;-77
2021/11/30 02:02:47;;;;;;;7.03;5.22;;;;;;;;;;5033004;28;20178;-77
2021/11/30 02:05:13;;;;;;;9.82;4.78;;;;;;;;;;5032929;28;20193;-80
2021/11/30 02:07:39;;;;;;;9.70;5.07;;;;;;;;;;5033025;28;20608;-75
2021/11/30 02:10:08;;;;;;;7.10;4.13;;;;;;;;;;5032381;28;20429;-78
2021/11/30 02:12:35;;;;;;;13.82;4.63;;;;;;;;;;5032820;28;20180;-78
2021/11/30 02:15:02;;;;;;;8.10;4.00;;;;;;;;;;5036316;28;20211;-77
2021/11/30 02:17:28;;;;;;;6.97;5.63;;;;;;;;;;5036617;28;20601;-79
2021/11/30 02:19:57;;;;;;;7.13;4.82;;;;;;;;;;5034704;28;20806;-77
2021/11/30 02:22:23;;;;;;;7.55;4.35;;;;;;;;;;5036579;28;20581;-77
2021/11/30 02:24:50;;;;;;;5.18;3.65;;;;;;;;;;5036567;28;20213;-78
2021/11/30 02:27:16;;;;;;;8.23;4.43;;;;;;;;;;5036487;28;20188;-77
2021/11/30 02:29:42;;;;;;;8.57;4.82;;;;;;;;;;5034720;28;20216;-78
2021/11/30 02:32:08;;;;;;;7.03;3.80;;;;;;;;;;5036293;28;20170;-78
2021/11/30 02:34:34;;;;;;;5.60;4.20;;;;;;;;;;5036189;28;20174;-79
2021/11/30 02:37:07;;;;;;;7.93;3.78;;;;;;;;;;5036314;28;20538;-77
2021/11/30 02:39:34;;;;;;;8.35;4.00;;;;;;;;;;5035900;28;20540;-79
2021/11/30 02:42:02;;;;;;;12.13;4.15;;;;;;;;;;5036122;28;20675;-78
2021/11/30 02:44:28;;;;;;;8.00;3.80;;;;;;;;;;5035958;28;20238;-78
2021/11/30 02:46:56;;;;;;;4.55;3.10;;;;;;;;;;5034882;28;20272;-79
2021/11/30 02:49:23;;;;;;;7.53;4.00;;;;;;;;;;5035717;28;20198;-79
2021/11/30 02:51:51;;;;;;;4.47;3.47;;;;;;;;;;5035907;28;20653;-77
2021/11/30 02:54:19;;;;;;;3.88;3.42;;;;;;;;;;5036229;28;20174;-81
2021/11/30 02:56:49;;;;;;;7.25;3.75;;;;;;;;;;5035893;28;20591;-76
2021/11/30 02:59:16;;;;;;;5.65;3.70;;;;;;;;;;5035546;28;20909;-77
2021/11/30 03:01:43;;;;;;;5.57;3.13;;;;;;;;;;5036005;28;20603;-77
2021/11/30 03:04:13;;;;;;;6.70;3.15;;;;;;;;;;5034436;28;20185;-78
2021/11/30 03:06:40;;;;;;;6.82;3.78;;;;;;;;;;5035875;28;20197;-78
2021/11/30 03:09:06;;;;;;;8.90;2.75;;;;;;;;;;5035375;28;20602;-79
2021/11/30 03:11:32;;;;;;;4.53;3.75;;;;;;;;;;5035272;28;20200;-78
2021/11/30 03:13:58;;;;;;;9.50;3.78;;;;;;;;;;5034909;28;20182;-79
2021/11/30 03:16:25;;;;;;;8.82;3.75;;;;;;;;;;5034239;28;20187;-78
2021/11/30 03:18:51;;;;;;;6.85;3.88;;;;;;;;;;5035441;28;20247;-77
2021/11/30 03:21:17;;;;;;;8.20;4.15;;;;;;;;;;5035016;28;20198;-79
2021/11/30 03:23:43;;;;;;;7.00;4.53;;;;;;;;;;5035491;28;20210;-80
2021/11/30 03:26:10;;;;;;;5.18;3.83;;;;;;;;;;5033294;28;20638;-79
2021/11/30 03:28:36;;;;;;;15.10;4.80;;;;;;;;;;5035422;28;20212;-79
2021/11/30 03:31:05;;;;;;;6.93;3.95;;;;;;;;;;5034732;28;20585;-78
2021/11/30 03:36:16;;;;;;;7.40;4.25;;;;;;;;;;5035637;28;20262;-77
2021/11/30 03:38:42;;;;;;;4.78;3.13;;;;;;;;;;5035104;28;20178;-80
2021/11/30 03:41:09;;;;;;;3.42;2.55;;;;;;;;;;5034656;28;20198;-78
2021/11/30 03:43:35;;;;;;;5.10;3.95;;;;;;;;;;5035094;28;20176;-80
2021/11/30 03:46:01;;;;;;;7.38;4.03;;;;;;;;;;5035129;28;20637;-79
2021/11/30 03:48:27;;;;;;;5.32;3.90;;;;;;;;;;5034917;28;20699;-80
2021/11/30 03:50:54;;;;;;;6.82;3.58;;;;;;;;;;5034431;28;20319;-80
2021/11/30 03:53:20;;;;;;;7.20;4.22;;;;;;;;;;5034847;28;20154;-78
2021/11/30 03:55:46;;;;;;;4.68;3.85;;;;;;;;;;5033559;28;20539;-80
2021/11/30 03:58:12;;;;;;;3.33;3.03;;;;;;;;;;5034924;28;20177;-82
2021/11/30 04:00:38;;;;;;;5.07;2.95;;;;;;;;;;5034235;28;20657;-81
2021/11/30 04:03:05;;;;;;;2.85;2.65;;;;;;;;;;5034465;28;20262;-81
2021/11/30 04:05:31;;;;;;;3.08;2.75;;;;;;;;;;5034592;28;20194;-80
2021/11/30 04:07:57;;;;;;;4.15;3.25;;;;;;;;;;5034586;28;20236;-78
2021/11/30 04:10:23;;;;;;;4.47;2.20;;;;;;;;;;5033023;28;20208;-81
2021/11/30 04:12:49;;;;;;;2.75;2.38;;;;;;;;;;5034580;28;20178;-78
2021/11/30 04:15:15;;;;;;;4.80;2.33;;;;;;;;;;5034399;28;20205;-78
2021/11/30 04:17:41;;;;;;;2.47;2.20;;;;;;;;;;5033094;28;20633;-81
2021/11/30 04:20:08;;;;;;;2.10;1.90;;;;;;;;;;5034089;28;20192;-79
2021/11/30 04:22:34;;;;;;;2.72;2.25;;;;;;;;;;5034492;28;20181;-78
2021/11/30 04:25:00;;;;;;;2.33;2.13;;;;;;;;;;5034441;28;20181;-81
2021/11/30 04:27:26;;;;;;;7.20;2.25;;;;;;;;;;5034173;28;20634;-78
2021/11/30 04:29:52;;;;;;;2.57;2.30;;;;;;;;;;5033782;28;20270;-79
2021/11/30 04:32:18;;;;;;;2.03;1.73;;;;;;;;;;5034099;28;20823;-79
2021/11/30 04:34:44;;;;;;;2.28;1.90;;;;;;;;;;5034097;28;20194;-79
2021/11/30 04:37:10;;;;;;;4.13;2.10;;;;;;;;;;5033148;28;20174;-78
2021/11/30 04:39:36;;;;;;;2.50;2.30;;;;;;;;;;5033618;28;20498;-78
2021/11/30 04:42:03;;;;;;;2.65;2.45;;;;;;;;;;5033998;28;20626;-80
2021/11/30 04:44:31;;;;;;;2.97;2.20;;;;;;;;;;5032688;28;20189;-79
2021/11/30 04:47:06;;;;;;;2.20;1.80;;;;;;;;;;5033921;28;20538;-81
2021/11/30 04:51:58;;;;;;;3.53;2.33;;;;;;;;;;5033615;28;20327;-79
2021/11/30 04:54:25;;;;;;;7.57;2.45;;;;;;;;;;5033787;28;20179;-79
2021/11/30 04:56:51;;;;;;;3.10;2.58;;;;;;;;;;5033713;28;20649;-79
2021/11/30 04:59:19;;;;;;;2.60;2.40;;;;;;;;;;5033745;28;20296;-80
2021/11/30 05:01:45;;;;;;;5.45;3.28;;;;;;;;;;5033633;28;20198;-79
2021/11/30 05:04:11;;;;;;;4.57;3.30;;;;;;;;;;5034315;28;20539;-78
2021/11/30 05:06:37;;;;;;;3.30;3.00;;;;;;;;;;5034135;28;20492;-79
2021/11/30 05:09:06;;;;;;;3.30;3.00;;;;;;;;;;5033599;28;20194;-81
2021/11/30 05:11:33;;;;;;;5.32;3.08;;;;;;;;;;5033687;28;20193;-78
2021/11/30 05:13:59;;;;;;;4.63;2.90;;;;;;;;;;5034306;28;20180;-79
2021/11/30 05:16:25;;;;;;;4.35;3.92;;;;;;;;;;5033698;28;20628;-78
2021/11/30 05:18:51;;;;;;;5.60;3.55;;;;;;;;;;5033425;28;20188;-80
2021/11/30 05:21:17;;;;;;;3.35;3.03;;;;;;;;;;5015403;28;20209;-78
2021/11/30 05:23:43;;;;;;;3.78;3.45;;;;;;;;;;5034012;28;20193;-78
2021/11/30 05:26:09;;;;;;;3.50;3.20;;;;;;;;;;5033830;28;20181;-78
2021/11/30 05:28:36;;;;;;;5.90;3.83;;;;;;;;;;5033181;28;20232;-78
2021/11/30 05:31:03;;;;;;;5.40;3.72;;;;;;;;;;5032965;28;20405;-79
2021/11/30 05:33:29;;;;;;;4.75;3.97;;;;;;;;;;5033557;28;20178;-79
2021/11/30 05:35:56;;;;;;;4.45;3.65;;;;;;;;;;5033335;28;20174;-80
2021/11/30 05:38:22;;;;;;;7.22;4.00;;;;;;;;;;5032122;28;20233;-80
2021/11/30 05:40:48;;;;;;;5.93;3.90;;;;;;;;;;5033017;28;20709;-79
2021/11/30 05:43:14;;;;;;;6.05;3.95;;;;;;;;;;5033149;28;20185;-80
2021/11/30 05:45:40;;;;;;;5.43;3.00;;;;;;;;;;5031959;28;20185;-79
2021/11/30 05:48:06;;;;;;;5.20;4.70;;;;;;;;;;5032278;28;20475;-78
2021/11/30 05:50:32;;;;;;;6.18;4.47;;;;;;;;;;5038122;28;20202;-78
2021/11/30 05:52:59;;;;;;;4.80;4.40;;;;;;;;;;5037230;28;20592;-80
2021/11/30 05:55:25;;;;;;;5.60;4.63;;;;;;;;;;5037516;28;20170;-79
2021/11/30 05:57:51;;;;;;;5.47;4.43;;;;;;;;;;5019483;28;20684;-78
2021/11/30 06:00:17;;;;;;;4.32;3.92;;;;;;;;;;5036592;28;20200;-80
2021/11/30 06:05:19;;;;;;;5.28;4.78;;;;;;;;;;5037214;28;20268;-79
2021/11/30 06:07:45;;;;;;;5.90;5.30;;;;;;;;;;5038368;28;20240;-79
2021/11/30 06:10:11;;;;;;;12.15;5.65;;;;;;;;;;5035393;28;20712;-79
2021/11/30 06:12:37;;;;;;;7.47;6.38;;;;;;;;;;5035529;28;20182;-79
2021/11/30 06:15:03;;;;;;;6.70;5.87;;;;;;;;;;5035605;28;20185;-79
2021/11/30 06:17:29;;;;;;;7.43;6.63;;;;;;;;;;5036873;28;20915;-79
2021/11/30 06:19:55;;;;;;;4.90;4.35;;;;;;;;;;5036305;28;20188;-81
2021/11/30 06:22:21;;;;;;;7.50;6.10;;;;;;;;;;5035901;28;20178;-78
2021/11/30 06:24:47;;;;;;;7.35;6.05;;;;;;;;;;5036385;28;20496;-80
2021/11/30 06:27:13;;;;;;;7.47;6.18;;;;;;;;;;5035201;28;20189;-78
2021/11/30 06:29:39;;;;;;;9.40;6.90;;;;;;;;;;5035994;28;20197;-80
2021/11/30 06:32:05;;;;;;;7.38;6.20;;;;;;;;;;5036384;28;20171;-79
2021/11/30 06:34:31;;;;;;;6.10;5.07;;;;;;;;;;5036246;28;20185;-78
2021/11/30 06:36:57;;;;;;;6.27;5.20;;;;;;;;;;5036164;28;20178;-78
2021/11/30 06:39:23;;;;;;;6.22;5.60;;;;;;;;;;5035957;28;20447;-80
2021/11/30 06:41:49;;;;;;;6.23;5.63;;;;;;;;;;5036020;28;20252;-80
2021/11/30 06:44:15;;;;;;;7.53;5.37;;;;;;;;;;5018255;28;20437;-79
2021/11/30 06:46:41;;;;;;;6.65;6.05;;;;;;;;;;5036003;28;20420;-78
2021/11/30 06:49:07;;;;;;;5.85;5.25;;;;;;;;;;5036007;28;20203;-80
2021/11/30 06:51:33;;;;;;;6.97;5.68;;;;;;;;;;5035764;28;20557;-79
2021/11/30 06:53:59;;;;;;;5.88;5.38;;;;;;;;;;5035949;28;20209;-79
2021/11/30 06:56:27;;;;;;;4.73;4.40;;;;;;;;;;5034612;28;20550;-78
2021/11/30 06:58:53;;;;;;;3.60;3.30;;;;;;;;;;5035873;28;20413;-79
2021/11/30 07:01:19;;;;;;;4.68;3.80;;;;;;;;;;5033065;28;20198;-80
2021/11/30 07:03:47;;;;;;;2.90;2.67;;;;;;;;;;5035773;28;20182;-79
2021/11/30 07:06:26;;;;;;;4.80;4.38;;;;;;;;;;5035995;28;20181;-79
2021/11/30 07:12:10;;;;;;;4.27;3.87;;;;;;;;;;5035349;28;20257;-80
2021/11/30 07:14:05;;;;;;;4.32;4.03;;;;;;;;;;5035119;28;20425;-79
2021/11/30 07:16:31;;;;;;;3.60;3.30;;;;;;;;;;5035571;28;20186;-78
2021/11/30 07:18:57;;;;;;;5.18;3.53;;;;;;;;;;5035590;28;20182;-78
2021/11/30 07:21:24;;;;;;;4.07;3.72;;;;;;;;;;5035223;28;20198;-78
2021/11/30 07:23:50;;;;;;;5.72;4.20;;;;;;;;;;5035517;28;20171;-80
2021/11/30 07:26:16;;;;;;;4.68;4.25;;;;;;;;;;5034182;28;20544;-81
2021/11/30 07:28:42;;;;;;;6.05;5.55;;;;;;;;;;5033880;28;20220;-80
2021/11/30 07:31:11;;;;;;;3.92;3.53;;;;;;;;;;5035018;28;20565;-81
2021/11/30 07:33:38;;;;;;;6.32;5.13;;;;;;;;;;5035407;28;20172;-82
2021/11/30 07:36:09;;;;;;;5.70;5.00;;;;;;;;;;5035309;28;20193;-79
2021/11/30 07:38:35;;;;;;;5.18;3.95;;;;;;;;;;5034011;28;20266;-80
2021/11/30 07:41:01;;;;;;;7.03;4.43;;;;;;;;;;5034664;28;20539;-80
2021/11/30 07:43:27;;;;;;;5.93;5.33;;;;;;;;;;5034036;28;20236;-82
2021/11/30 07:45:53;;;;;;;6.25;5.50;;;;;;;;;;5035224;28;20766;-78
2021/11/30 07:48:21;;;;;;;5.28;4.43;;;;;;;;;;5034027;28;20550;-81
2021/11/30 07:50:47;;;;;;;6.70;5.25;;;;;;;;;;5034860;28;20562;-79
2021/11/30 07:53:13;;;;;;;5.95;4.97;;;;;;;;;;5035068;28;20183;-79
2021/11/30 07:55:40;;;;;;;5.38;4.80;;;;;;;;;;5034895;28;20192;-79
2021/11/30 07:58:06;;;;;;;4.47;3.60;;;;;;;;;;5034768;28;20178;-80
2021/11/30 08:00:32;;;;;;;5.10;4.45;;;;;;;;;;5034580;28;20225;-81
2021/11/30 08:02:58;;;;;;;4.97;4.50;;;;;;;;;;5034859;28;20257;-79
2021/11/30 08:05:24;;;;;;;4.93;3.67;;;;;;;;;;5034911;28;20184;-80
2021/11/30 08:07:50;;;;;;;6.88;4.10;;;;;;;;;;5034699;28;20269;-78
2021/11/30 08:10:18;;;;;;;4.00;3.60;;;;;;;;;;5034365;28;20220;-79
2021/11/30 08:12:45;;;;;;;3.92;3.47;;;;;;;;;;5034257;28;20249;-80
2021/11/30 08:15:14;;;;;;;4.43;4.03;;;;;;;;;;5034611;28;20174;-78
2021/11/30 08:17:40;;;;;;;4.70;4.20;;;;;;;;;;5034281;28;20194;-79
2021/11/30 08:20:08;;;;;;;7.28;4.50;;;;;;;;;;5034078;28;20272;-80
2021/11/30 08:22:34;;;;;;;4.15;3.75;;;;;;;;;;5034580;28;20173;-78
2021/11/30 08:25:00;;;;;;;4.78;4.38;;;;;;;;;;5034338;28;20173;-80
2021/11/30 08:27:26;;;;;;;3.85;3.55;;;;;;;;;;5034393;28;20175;-80
2021/11/30 08:29:52;;;;;;;4.18;3.15;;;;;;;;;;5032539;28;20217;-78
2021/11/30 08:32:22;;;;;;;4.55;3.45;;;;;;;;;;5034186;28;20170;-79
2021/11/30 08:34:49;;;;;;;3.05;2.72;;;;;;;;;;5034267;28;20170;-79
2021/11/30 08:37:15;;;;;;;3.63;3.33;;;;;;;;;;5034039;28;20195;-79
2021/11/30 08:39:41;;;;;;;6.05;4.20;;;;;;;;;;5016104;28;20176;-79
2021/11/30 08:42:09;;;;;;;3.28;3.00;;;;;;;;;;5034132;28;20193;-80
2021/11/30 08:44:35;;;;;;;4.22;3.55;;;;;;;;;;5032723;28;20170;-81
2021/11/30 08:47:01;;;;;;;3.05;2.75;;;;;;;;;;5033887;28;20259;-79
2021/11/30 08:49:28;;;;;;;3.45;3.15;;;;;;;;;;5032148;28;20272;-80
2021/11/30 08:51:56;;;;;;;3.50;3.20;;;;;;;;;;5033699;28;20195;-79
2021/11/30 08:54:22;;;;;;;4.75;3.55;;;;;;;;;;5032779;28;20617;-78
2021/11/30 08:56:48;;;;;;;3.42;3.13;;;;;;;;;;5033817;28;20206;-81
2021/11/30 08:59:14;;;;;;;3.77;3.47;;;;;;;;;;5033447;28;20244;-78
2021/11/30 09:01:40;;;;;;;3.60;3.30;;;;;;;;;;5033606;28;20432;-78
2021/11/30 09:04:06;;;;;;;4.03;3.63;;;;;;;;;;5034007;28;20220;-80
2021/11/30 09:06:33;;;;;;;3.38;3.15;;;;;;;;;;5033664;28;20186;-81
2021/11/30 09:08:59;;;;;;;5.30;4.80;;;;;;;;;;5033940;28;20489;-80
2021/11/30 09:11:25;;;;;;;5.13;4.65;;;;;;;;;;5033492;28;20590;-80
2021/11/30 09:13:52;;;;;;;6.22;4.63;;;;;;;;;;5032380;28;20174;-80
2021/11/30 09:16:18;;;;;;;4.25;3.90;;;;;;;;;;5032192;28;20186;-80
2021/11/30 09:18:44;;;;;;;3.28;2.97;;;;;;;;;;5033508;28;20177;-79
2021/11/30 09:21:10;;;;;;;6.75;4.85;;;;;;;;;;5032804;28;20500;-80
2021/11/30 09:23:36;;;;;;;5.18;4.75;;;;;;;;;;5038060;28;20170;-79
2021/11/30 09:26:03;;;;;;;4.93;4.25;;;;;;;;;;5036759;28;20192;-79
2021/11/30 09:28:29;;;;;;;6.22;5.63;;;;;;;;;;5035362;28;20749;-81
2021/11/30 09:30:55;;;;;;;5.30;4.85;;;;;;;;;;5033379;28;20284;-82
2021/11/30 09:33:21;;;;;;;4.60;4.17;;;;;;;;;;5033409;28;20264;-82
2021/11/30 09:35:47;;;;;;;3.80;3.40;;;;;;;;;;5033243;28;20460;-80
2021/11/30 09:38:13;;;;;;;6.07;5.15;;;;;;;;;;5033727;28;20515;-81
2021/11/30 09:40:39;;;;;;;5.00;4.60;;;;;;;;;;5032911;28;20196;-80
2021/11/30 09:43:07;;;;;;;5.65;5.13;;;;;;;;;;5038629;28;20692;-82
2021/11/30 09:45:34;;;;;;;5.40;4.60;;;;;;;;;;5046074;28;20177;-79
2021/11/30 09:48:00;;;;;;;4.53;4.10;;;;;;;;;;5038558;28;20193;-80
2021/11/30 09:50:26;;;;;;;5.05;4.20;;;;;;;;;;5032854;28;20209;-80
2021/11/30 09:52:56;;;;;;;4.70;4.30;;;;;;;;;;5033029;28;20205;-82
2021/11/30 09:55:24;;;;;;;3.85;3.47;;;;;;;;;;5033688;28;20170;-79
2021/11/30 09:57:51;;;;;;;5.20;3.83;;;;;;;;;;5031726;28;20178;-79
2021/11/30 10:00:18;;;;;;;5.10;4.20;;;;;;;;;;5052730;28;20280;-80
2021/11/30 10:02:44;;;;;;;4.13;3.78;;;;;;;;;;5053136;28;20187;-79
2021/11/30 10:05:10;;;;;;;5.43;3.88;;;;;;;;;;5053289;28;20172;-79
2021/11/30 10:07:40;;;;;;;4.10;3.70;;;;;;;;;;5052697;28;20241;-80
2021/11/30 10:10:14;;;;;;;4.43;3.45;;;;;;;;;;5052459;28;20250;-80
2021/11/30 10:12:40;;;;;;;2.80;2.60;;;;;;;;;;5052780;28;20204;-78
2021/11/30 10:15:10;;;;;;;3.00;2.80;;;;;;;;;;5046778;28;20182;-78
2021/11/30 10:17:37;;;;;;;2.80;2.60;;;;;;;;;;5041933;28;20198;-79
2021/11/30 10:20:12;;;;;;;4.25;3.95;;;;;;;;;;5049278;28;20195;-79
2021/11/30 10:22:39;;;;;;;2.42;2.22;;;;;;;;;;5052358;28;20247;-79
2021/11/30 10:25:16;;;;;;;3.28;2.60;;;;;;;;;;5051607;28;20185;-80
2021/11/30 10:28:01;;;;;;;2.78;2.40;;;;;;;;;;5052877;28;20251;-81
2021/11/30 10:30:29;;;;;;;2.67;1.60;;;;;;;;;;5051344;28;20262;-80
2021/11/30 10:32:56;;;;;;;2.38;2.00;;;;;;;;;;5052808;28;20176;-79
2021/11/30 10:35:24;;;;;;;3.40;3.03;;;;;;;;;;5055217;28;20182;-80
2021/11/30 10:37:50;;;;;;;2.65;2.35;;;;;;;;;;5056438;28;20183;-80
2021/11/30 10:40:18;;;;;;;4.20;3.10;;;;;;;;;;5055835;28;20201;-80
2021/11/30 10:42:48;;;;;;;2.92;2.72;;;;;;;;;;5056082;28;20214;-79
2021/11/30 10:45:26;;;;;;;2.90;2.65;;;;;;;;;;5056251;28;20161;-79
2021/11/30 10:47:52;;;;;;;3.03;2.80;;;;;;;;;;5055970;28;20166;-80
2021/11/30 10:50:24;;;;;;;3.63;3.33;;;;;;;;;;5055563;28;20193;-81
2021/11/30 10:52:52;;;;;;;3.78;3.40;;;;;;;;;;5056144;28;20244;-81
2021/11/30 10:55:19;;;;;;;3.10;2.50;;;;;;;;;;5055952;28;20221;-81
2021/11/30 10:57:47;;;;;;;4.07;3.28;;;;;;;;;;5054668;28;20227;-80
2021/11/30 11:00:19;;;;;;;4.82;3.45;;;;;;;;;;5054365;28;20233;-79
2021/11/30 11:02:55;;;;;;;4.18;3.80;;;;;;;;;;5055760;28;20230;-81
2021/11/30 11:05:26;;;;;;;4.18;3.35;;;;;;;;;;5054624;28;20174;-82
2021/11/30 11:07:58;;;;;;;4.25;3.65;;;;;;;;;;5055692;28;20179;-80
2021/11/30 11:10:26;;;;;;;5.65;3.30;;;;;;;;;;5054135;28;20200;-82
2021/11/30 11:12:52;;;;;;;3.80;3.40;;;;;;;;;;5055633;28;20174;-82
2021/11/30 11:15:38;;;;;;;3.78;3.25;;;;;;;;;;5055657;28;20180;-78
2021/11/30 11:18:23;;;;;;;4.75;3.65;;;;;;;;;;5055362;28;20182;-79
2021/11/30 11:20:50;;;;;;;3.42;3.13;;;;;;;;;;5054111;28;20608;-78
2021/11/30 11:23:20;;;;;;;3.60;3.30;;;;;;;;;;5055635;28;20180;-80
2021/11/30 11:25:46;;;;;;;4.03;3.05;;;;;;;;;;5055619;28;20177;-79
2021/11/30 11:28:12;;;;;;;3.60;3.30;;;;;;;;;;5055387;28;20205;-78
2021/11/30 11:30:39;;;;;;;3.67;2.47;;;;;;;;;;5055035;28;20204;-80
2021/11/30 11:33:05;;;;;;;3.15;2.53;;;;;;;;;;5055469;28;20177;-80
2021/11/30 11:35:31;;;;;;;2.40;2.20;;;;;;;;;;5055284;28;20253;-80
2021/11/30 11:37:59;;;;;;;2.70;2.50;;;;;;;;;;5055303;28;20658;-79
2021/11/30 11:40:26;;;;;;;2.60;2.40;;;;;;;;;;5054872;28;20571;-78
2021/11/30 11:42:56;;;;;;;3.20;2.90;;;;;;;;;;5053847;28;20267;-81
2021/11/30 11:45:23;;;;;;;2.75;2.55;;;;;;;;;;5053802;28;20181;-81
2021/11/30 11:47:49;;;;;;;2.33;2.13;;;;;;;;;;5054780;28;20271;-80
2021/11/30 11:50:16;;;;;;;2.42;2.22;;;;;;;;;;5054877;28;20185;-81
2021/11/30 11:52:42;;;;;;;2.03;1.92;;;;;;;;;;5053533;28;20171;-80
2021/11/30 11:55:13;;;;;;;2.75;2.55;;;;;;;;;;5053643;28;20650;-79
2021/11/30 11:57:40;;;;;;;4.03;2.70;;;;;;;;;;5054731;28;20176;-79
2021/11/30 12:00:19;;;;;;;2.85;2.65;;;;;;;;;;5054303;28;20223;-80
2021/11/30 12:03:05;;;;;;;3.10;2.30;;;;;;;;;;5054904;28;20177;-80
2021/11/30 12:05:51;;;;;;;2.13;1.95;;;;;;;;;;5053409;28;20631;-80
2021/11/30 12:08:21;;;;;;;1.67;1.58;;;;;;;;;;5055578;28;20223;-81
2021/11/30 12:10:48;;;;;;;2.45;2.25;;;;;;;;;;5052950;28;20696;-82
2021/11/30 12:13:18;;;;;;;3.83;2.60;;;;;;;;;;5053358;28;20265;-82
2021/11/30 12:15:56;;;;;;;3.28;2.42;;;;;;;;;;5053565;28;20622;-80
2021/11/30 12:18:32;;;;;;;2.35;2.15;;;;;;;;;;5054793;28;20195;-81
2021/11/30 12:21:16;;;;;;;3.45;2.05;;;;;;;;;;5054359;28;20239;-82
2021/11/30 12:23:44;;;;;;;2.30;2.10;;;;;;;;;;5054732;28;20183;-83
2021/11/30 12:26:34;;;;;;;4.07;2.55;;;;;;;;;;5054563;28;20216;-80
2021/11/30 12:29:01;;;;;;;2.08;1.90;;;;;;;;;;5052997;28;20209;-82
2021/11/30 12:31:29;;;;;;;2.95;2.60;;;;;;;;;;5053826;28;20231;-80
2021/11/30 12:33:55;;;;;;;3.25;2.22;;;;;;;;;;5054226;28;20267;-80
2021/11/30 12:36:27;;;;;;;2.85;2.65;;;;;;;;;;5054266;28;20177;-83
2021/11/30 12:38:56;;;;;;;2.28;2.10;;;;;;;;;;5054312;28;20183;-82
2021/11/30 12:41:22;;;;;;;2.40;2.20;;;;;;;;;;5054000;28;20200;-81
2021/11/30 12:43:49;;;;;;;2.40;2.20;;;;;;;;;;5052770;28;20185;-79
2021/11/30 12:46:18;;;;;;;2.83;2.63;;;;;;;;;;5053977;28;20629;-81
2021/11/30 12:48:44;;;;;;;2.67;2.45;;;;;;;;;;5054178;28;20536;-81
2021/11/30 12:51:24;;;;;;;3.17;2.95;;;;;;;;;;5053604;28;20200;-82
2021/11/30 12:53:50;;;;;;;2.80;2.60;;;;;;;;;;5052599;28;20647;-81
2021/11/30 12:56:36;;;;;;;2.88;2.55;;;;;;;;;;5052609;28;20595;-81
2021/11/30 12:59:02;;;;;;;3.55;2.30;;;;;;;;;;5052881;28;20185;-81
2021/11/30 13:01:28;;;;;;;2.78;2.58;;;;;;;;;;5052307;28;20201;-82
2021/11/30 13:04:13;;;;;;;2.55;2.35;;;;;;;;;;5052916;28;20181;-82
2021/11/30 13:06:58;;;;;;;2.90;2.70;;;;;;;;;;5053855;28;20184;-82
2021/11/30 13:09:37;;;;;;;3.35;3.05;;;;;;;;;;5052990;28;20292;-82
2021/11/30 13:12:04;;;;;;;5.80;3.50;;;;;;;;;;5054951;28;20198;-82
2021/11/30 13:14:30;;;;;;;3.38;3.08;;;;;;;;;;5053716;28;20178;-81
2021/11/30 13:16:56;;;;;;;2.60;2.40;;;;;;;;;;5053135;28;20181;-80
2021/11/30 13:19:21;;;;;;;5.23;4.13;;;;;;;;;;5053057;28;20203;-80
2021/11/30 13:21:47;;;;;;;4.57;3.97;;;;;;;;;;5053441;28;20476;-80
2021/11/30 13:24:15;;;;;;;3.20;2.90;;;;;;;;;;5053385;28;20414;-81
2021/11/30 13:26:42;;;;;;;6.55;4.20;;;;;;;;;;5052379;28;20505;-80
2021/11/30 13:29:08;;;;;;;4.00;3.60;;;;;;;;;;5053329;28;20208;-80
2021/11/30 13:31:35;;;;;;;4.30;3.90;;;;;;;;;;5052840;28;20200;-79
2021/11/30 13:34:02;;;;;;;5.28;4.10;;;;;;;;;;5053014;28;20177;-81
2021/11/30 13:36:33;;;;;;;5.47;4.97;;;;;;;;;;5053144;28;20255;-80
2021/11/30 13:39:01;;;;;;;4.45;4.13;;;;;;;;;;5051944;28;20181;-80
2021/11/30 13:41:27;;;;;;;4.97;4.47;;;;;;;;;;5052576;28;20193;-80
2021/11/30 13:43:55;;;;;;;5.85;4.88;;;;;;;;;;5053257;28;20173;-80
2021/11/30 13:46:34;;;;;;;6.25;5.65;;;;;;;;;;5051930;28;20177;-79
2021/11/30 13:49:03;;;;;;;6.55;5.95;;;;;;;;;;5052901;28;20216;-79
2021/11/30 13:51:31;;;;;;;5.95;5.35;;;;;;;;;;5052566;28;20189;-79
2021/11/30 13:53:57;;;;;;;5.35;4.85;;;;;;;;;;5051650;28;20256;-81
2021/11/30 13:56:29;;;;;;;7.20;5.47;;;;;;;;;;5053023;28;20264;-78
2021/11/30 14:01:46;;;;;;;7.85;5.60;;;;;;;;;;5052877;28;20243;-80
2021/11/30 14:04:14;;;;;;;7.72;5.75;;;;;;;;;;5052918;28;20706;-79
2021/11/30 14:06:40;;;;;;;5.70;4.03;;;;;;;;;;5052700;28;20173;-81
2021/11/30 14:09:26;;;;;;;4.70;4.25;;;;;;;;;;5053143;28;20557;-79
2021/11/30 14:11:57;;;;;;;4.18;3.63;;;;;;;;;;5056657;28;20198;-81
2021/11/30 14:14:25;;;;;;;7.00;5.03;;;;;;;;;;5055465;28;20589;-80
2021/11/30 14:16:53;;;;;;;5.72;5.13;;;;;;;;;;5056548;28;20560;-80
2021/11/30 14:19:20;;;;;;;5.53;5.03;;;;;;;;;;5056288;28;20184;-79
2021/11/30 14:21:57;;;;;;;6.00;5.40;;;;;;;;;;5056508;28;20200;-81
2021/11/30 14:24:23;;;;;;;6.13;5.47;;;;;;;;;;5056871;28;20180;-78
2021/11/30 14:26:49;;;;;;;6.60;4.28;;;;;;;;;;5057133;28;20174;-79
2021/11/30 14:29:17;;;;;;;4.95;4.53;;;;;;;;;;5056575;28;20330;-78
2021/11/30 14:31:58;;;;;;;6.75;6.05;;;;;;;;;;5056546;28;20221;-78
2021/11/30 14:34:27;;;;;;;7.60;6.90;;;;;;;;;;5057035;28;20170;-79
2021/11/30 14:36:53;;;;;;;7.57;6.65;;;;;;;;;;5056874;28;20169;-79
2021/11/30 14:39:22;;;;;;;5.57;5.05;;;;;;;;;;5038713;28;20276;-77
2021/11/30 14:41:49;;;;;;;6.20;5.65;;;;;;;;;;5056245;28;20193;-80
2021/11/30 14:44:25;;;;;;;5.32;4.82;;;;;;;;;;5054687;28;20720;-81
2021/11/30 14:46:51;;;;;;;6.38;5.53;;;;;;;;;;5056045;28;20188;-79
2021/11/30 14:49:17;;;;;;;5.40;4.90;;;;;;;;;;5055807;28;20193;-78
2021/11/30 14:51:43;;;;;;;6.18;5.57;;;;;;;;;;5052299;28;20661;-81
2021/11/30 14:54:11;;;;;;;6.55;5.13;;;;;;;;;;5034813;28;20182;-79
2021/11/30 14:56:44;;;;;;;6.82;6.13;;;;;;;;;;5035201;28;20174;-78
2021/11/30 14:59:10;;;;;;;7.18;5.88;;;;;;;;;;5034739;28;20178;-78
2021/11/30 15:01:41;;;;;;;6.10;5.53;;;;;;;;;;5036123;28;20202;-80
2021/11/30 15:04:09;;;;;;;6.47;5.88;;;;;;;;;;5035669;28;20258;-79